createdAt,value
2017-11-24T00:00:03.643Z,99.13
2017-11-24T00:01:03.636Z,99.13
2017-11-24T00:02:03.632Z,98.75
2017-11-24T00:03:03.624Z,98.85
2017-11-24T00:04:03.620Z,98.94
2017-11-24T00:05:03.611Z,98.85
2017-11-24T00:06:03.609Z,99.71
2017-11-24T00:07:03.621Z,99.37
2017-11-24T00:08:03.597Z,99.95
2017-11-24T00:09:03.593Z,99.66
2017-11-24T00:10:03.592Z,99.99
2017-11-24T00:11:03.585Z,99.75
2017-11-24T00:12:03.571Z,99.75
2017-11-24T00:13:03.568Z,99.95
2017-11-24T00:14:03.561Z,99.99
2017-11-24T00:15:03.564Z,99.99
2017-11-24T00:16:03.551Z,99.85
2017-11-24T00:17:03.546Z,99.99
2017-11-24T00:18:03.545Z,99.75
2017-11-24T00:19:03.536Z,99.95
2017-11-24T00:20:03.527Z,99.99
2017-11-24T00:21:03.525Z,99.99
2017-11-24T00:22:03.518Z,99.99
2017-11-24T00:23:03.517Z,99.99
2017-11-24T00:24:03.516Z,99.99
2017-11-24T00:25:03.498Z,99.99
2017-11-24T00:26:03.493Z,99.99
2017-11-24T00:27:03.495Z,99.99
2017-11-24T00:28:03.481Z,99.99
2017-11-24T00:29:03.476Z,99.99
2017-11-24T00:30:03.468Z,99.90
2017-11-24T00:31:03.465Z,99.99
2017-11-24T00:32:03.458Z,99.99
2017-11-24T00:33:03.453Z,99.80
2017-11-24T00:34:03.443Z,99.95
2017-11-24T00:35:03.435Z,99.99
2017-11-24T00:36:03.437Z,99.80
2017-11-24T00:37:03.439Z,99.95
2017-11-24T00:38:03.429Z,99.99
2017-11-24T00:39:04.228Z,99.66
2017-11-24T00:40:03.412Z,99.37
2017-11-24T00:41:03.405Z,99.99
2017-11-24T00:42:06.253Z,99.99
2017-11-24T00:43:03.397Z,99.99
2017-11-24T00:44:03.391Z,99.99
2017-11-24T00:45:03.383Z,99.99
2017-11-24T00:46:03.380Z,99.99
2017-11-24T00:47:03.377Z,99.85
2017-11-24T00:48:03.370Z,99.99
2017-11-24T00:49:03.384Z,99.90
2017-11-24T00:50:03.358Z,99.99
2017-11-24T00:51:03.353Z,99.90
2017-11-24T00:52:03.344Z,99.99
2017-11-24T00:53:03.345Z,99.80
2017-11-24T00:54:03.331Z,99.71
2017-11-24T00:55:03.324Z,99.99
2017-11-24T00:56:03.328Z,99.99
2017-11-24T00:57:03.320Z,99.90
2017-11-24T00:58:03.312Z,99.99
2017-11-24T00:59:03.304Z,99.99
2017-11-24T01:00:03.293Z,99.99
2017-11-24T01:01:03.289Z,99.99
2017-11-24T01:02:03.287Z,99.80
2017-11-24T01:03:03.286Z,99.80
2017-11-24T01:04:03.285Z,99.90
2017-11-24T01:05:03.285Z,99.99
2017-11-24T01:06:03.264Z,99.99
2017-11-24T01:07:03.257Z,99.99
2017-11-24T01:08:03.255Z,99.99
2017-11-24T01:09:03.246Z,99.99
2017-11-24T01:10:03.241Z,99.99
2017-11-24T01:11:03.237Z,99.99
2017-11-24T01:12:03.225Z,99.99
2017-11-24T01:13:03.223Z,99.61
2017-11-24T01:14:03.224Z,99.99
2017-11-24T01:15:03.212Z,99.99
2017-11-24T01:16:03.202Z,99.99
2017-11-24T01:17:03.202Z,99.71
2017-11-24T01:18:03.197Z,99.99
2017-11-24T01:19:03.190Z,99.99
2017-11-24T01:20:03.186Z,99.99
2017-11-24T01:21:03.178Z,99.99
2017-11-24T01:22:03.172Z,99.99
2017-11-24T01:23:03.170Z,99.99
2017-11-24T01:24:03.164Z,99.99
2017-11-24T01:25:03.151Z,99.46
2017-11-24T01:26:03.162Z,99.99
2017-11-24T01:27:03.147Z,99.99
2017-11-24T01:28:03.141Z,99.99
2017-11-24T01:29:03.133Z,99.99
2017-11-24T01:30:03.130Z,99.99
2017-11-24T01:31:03.123Z,99.99
2017-11-24T01:32:03.117Z,99.99
2017-11-24T01:33:03.128Z,99.99
2017-11-24T01:34:03.102Z,99.99
2017-11-24T01:35:03.098Z,99.99
2017-11-24T01:36:03.095Z,99.90
2017-11-24T01:37:03.111Z,99.99
2017-11-24T01:38:03.088Z,99.99
2017-11-24T01:39:03.082Z,99.95
2017-11-24T01:40:03.075Z,99.99
2017-11-24T01:41:03.060Z,99.99
2017-11-24T01:42:03.070Z,99.85
2017-11-24T01:43:03.046Z,99.75
2017-11-24T01:44:03.064Z,99.46
2017-11-24T01:45:03.045Z,99.75
2017-11-24T01:46:03.043Z,99.85
2017-11-24T01:47:03.034Z,99.75
2017-11-24T01:48:03.026Z,99.46
2017-11-24T01:49:03.026Z,99.95
2017-11-24T01:50:03.015Z,99.37
2017-11-24T01:51:03.013Z,99.46
2017-11-24T01:52:02.999Z,99.95
2017-11-24T01:53:02.995Z,99.46
2017-11-24T01:54:02.985Z,99.46
2017-11-24T01:55:02.997Z,99.66
2017-11-24T01:56:02.973Z,99.99
2017-11-24T01:57:02.975Z,99.95
2017-11-24T01:58:02.971Z,99.99
2017-11-24T01:59:02.959Z,99.75
2017-11-24T02:00:02.959Z,99.75
2017-11-24T02:01:02.954Z,99.99
2017-11-24T02:02:02.951Z,99.66
2017-11-24T02:03:02.944Z,99.66
2017-11-24T02:04:02.937Z,99.99
2017-11-24T02:05:02.919Z,99.99
2017-11-24T02:06:02.918Z,99.99
2017-11-24T02:07:02.916Z,99.99
2017-11-24T02:08:02.907Z,99.99
2017-11-24T02:09:02.895Z,99.56
2017-11-24T02:10:02.899Z,99.99
2017-11-24T02:11:02.888Z,99.99
2017-11-24T02:12:02.902Z,99.99
2017-11-24T02:13:02.877Z,99.99
2017-11-24T02:14:02.880Z,99.99
2017-11-24T02:15:02.876Z,99.99
2017-11-24T02:16:02.872Z,99.95
2017-11-24T02:17:02.854Z,99.99
2017-11-24T02:18:02.857Z,99.99
2017-11-24T02:19:02.849Z,99.99
2017-11-24T02:20:02.861Z,99.99
2017-11-24T02:21:02.833Z,99.99
2017-11-24T02:22:02.831Z,99.99
2017-11-24T02:23:02.825Z,99.99
2017-11-24T02:24:02.812Z,99.99
2017-11-24T02:25:02.810Z,99.99
2017-11-24T02:26:02.800Z,99.99
2017-11-24T02:27:02.803Z,99.99
2017-11-24T02:28:02.790Z,99.99
2017-11-24T02:29:02.795Z,99.99
2017-11-24T02:30:02.780Z,99.99
2017-11-24T02:31:02.777Z,99.99
2017-11-24T02:32:02.780Z,99.99
2017-11-24T02:33:02.765Z,99.99
2017-11-24T02:34:02.768Z,99.99
2017-11-24T02:35:02.754Z,99.99
2017-11-24T02:36:02.759Z,99.99
2017-11-24T02:37:02.732Z,99.99
2017-11-24T02:38:02.732Z,99.99
2017-11-24T02:39:02.739Z,99.99
2017-11-24T02:40:02.720Z,99.99
2017-11-24T02:41:02.715Z,99.99
2017-11-24T02:42:02.711Z,99.99
2017-11-24T02:43:02.720Z,99.99
2017-11-24T02:44:02.701Z,99.99
2017-11-24T02:45:02.696Z,99.99
2017-11-24T02:46:02.684Z,99.99
2017-11-24T02:47:02.680Z,99.99
2017-11-24T02:48:02.680Z,99.99
2017-11-24T02:49:02.667Z,99.99
2017-11-24T02:50:02.665Z,99.99
2017-11-24T02:51:02.658Z,99.99
2017-11-24T02:52:02.644Z,99.99
2017-11-24T02:53:02.649Z,99.99
2017-11-24T02:54:02.637Z,99.99
2017-11-24T02:55:02.633Z,99.99
2017-11-24T02:56:02.636Z,99.99
2017-11-24T02:57:02.635Z,99.99
2017-11-24T02:58:02.607Z,99.99
2017-11-24T02:59:02.609Z,99.99
2017-11-24T03:00:02.610Z,99.99
2017-11-24T03:01:02.598Z,99.99
2017-11-24T03:02:02.591Z,99.99
2017-11-24T03:03:02.600Z,99.99
2017-11-24T03:04:02.581Z,99.99
2017-11-24T03:05:02.582Z,99.99
2017-11-24T03:06:02.572Z,99.99
2017-11-24T03:07:02.568Z,99.99
2017-11-24T03:08:02.577Z,99.99
2017-11-24T03:09:02.548Z,99.99
2017-11-24T03:10:02.544Z,99.99
2017-11-24T03:11:02.543Z,99.99
2017-11-24T03:12:02.547Z,99.99
2017-11-24T03:13:02.534Z,99.99
2017-11-24T03:14:02.531Z,99.99
2017-11-24T03:15:02.543Z,99.99
2017-11-24T03:16:02.503Z,99.99
2017-11-24T03:17:02.500Z,99.99
2017-11-24T03:18:02.496Z,99.99
2017-11-24T03:19:02.503Z,99.99
2017-11-24T03:20:02.487Z,99.99
2017-11-24T03:21:02.476Z,99.99
2017-11-24T03:22:02.482Z,99.99
2017-11-24T03:23:02.469Z,99.99
2017-11-24T03:24:02.473Z,99.99
2017-11-24T03:25:02.471Z,99.99
2017-11-24T03:26:02.455Z,99.99
2017-11-24T03:27:02.444Z,99.99
2017-11-24T03:28:02.436Z,99.99
2017-11-24T03:29:02.430Z,99.99
2017-11-24T03:30:02.429Z,99.99
2017-11-24T03:31:02.426Z,99.99
2017-11-24T03:32:02.412Z,99.99
2017-11-24T03:33:02.405Z,99.99
2017-11-24T03:34:02.406Z,99.99
2017-11-24T03:35:02.400Z,99.99
2017-11-24T03:36:02.389Z,99.99
2017-11-24T03:37:02.393Z,99.99
2017-11-24T03:38:02.383Z,99.99
2017-11-24T03:39:02.387Z,99.99
2017-11-24T03:40:02.370Z,99.99
2017-11-24T03:41:02.364Z,99.99
2017-11-24T03:42:02.359Z,99.99
2017-11-24T03:43:02.354Z,99.99
2017-11-24T03:44:02.354Z,99.99
2017-11-24T03:45:02.345Z,99.99
2017-11-24T03:46:02.333Z,99.99
2017-11-24T03:47:02.335Z,99.99
2017-11-24T03:48:02.328Z,99.99
2017-11-24T03:49:02.322Z,99.99
2017-11-24T03:50:02.315Z,99.99
2017-11-24T03:51:02.308Z,99.99
2017-11-24T03:52:02.303Z,99.99
2017-11-24T03:53:02.289Z,99.99
2017-11-24T03:54:02.283Z,99.99
2017-11-24T03:55:02.286Z,99.99
2017-11-24T03:56:02.277Z,99.99
2017-11-24T03:57:02.275Z,99.99
2017-11-24T03:58:02.272Z,99.99
2017-11-24T03:59:02.266Z,99.99
2017-11-24T04:00:02.271Z,99.99
2017-11-24T04:01:02.253Z,99.99
2017-11-24T04:02:02.267Z,99.99
2017-11-24T04:03:02.241Z,99.99
2017-11-24T04:04:02.235Z,99.99
2017-11-24T04:05:02.224Z,99.99
2017-11-24T04:06:02.218Z,99.99
2017-11-24T04:07:02.216Z,99.99
2017-11-24T04:08:02.204Z,99.99
2017-11-24T04:09:02.203Z,99.99
2017-11-24T04:10:02.202Z,99.99
2017-11-24T04:11:02.195Z,99.99
2017-11-24T04:12:02.187Z,99.99
2017-11-24T04:13:02.187Z,99.99
2017-11-24T04:14:02.179Z,99.99
2017-11-24T04:15:02.171Z,99.99
2017-11-24T04:16:02.171Z,99.99
2017-11-24T04:17:02.170Z,99.99
2017-11-24T04:18:02.165Z,99.99
2017-11-24T04:19:02.153Z,99.99
2017-11-24T04:20:02.143Z,99.99
2017-11-24T04:21:02.136Z,99.99
2017-11-24T04:22:02.130Z,99.99
2017-11-24T04:23:02.124Z,99.52
2017-11-24T04:24:02.119Z,99.61
2017-11-24T04:25:02.109Z,99.71
2017-11-24T04:26:02.111Z,98.23
2017-11-24T04:26:14.099Z,98.13
2017-11-24T04:28:02.105Z,98.71
2017-11-24T04:29:02.092Z,98.13
2017-11-24T04:30:02.098Z,99.08
2017-11-24T04:31:02.078Z,98.42
2017-11-24T04:32:02.076Z,97.94
2017-11-24T04:33:02.069Z,97.75
2017-11-24T04:34:02.063Z,97.47
2017-11-24T04:35:02.060Z,96.80
2017-11-24T04:36:02.052Z,97.18
2017-11-24T04:37:02.041Z,96.98
2017-11-24T04:38:02.040Z,96.89
2017-11-24T04:39:02.030Z,96.51
2017-11-24T04:40:02.030Z,95.56
2017-11-24T04:41:02.020Z,95.75
2017-11-24T04:42:02.014Z,96.22
2017-11-24T04:43:02.015Z,96.32
2017-11-24T04:44:02.016Z,96.22
2017-11-24T04:45:02.001Z,95.56
2017-11-24T04:46:01.997Z,96.13
2017-11-24T04:47:01.991Z,96.03
2017-11-24T04:48:01.983Z,95.56
2017-11-24T04:49:01.990Z,95.56
2017-11-24T04:50:01.978Z,95.84
2017-11-24T04:51:01.967Z,95.46
2017-11-24T04:52:01.968Z,94.70
2017-11-24T04:53:01.955Z,94.98
2017-11-24T04:54:01.951Z,95.17
2017-11-24T04:55:01.946Z,95.17
2017-11-24T04:56:01.942Z,95.36
2017-11-24T04:57:01.940Z,95.08
2017-11-24T04:58:01.935Z,94.89
2017-11-24T04:59:01.937Z,94.51
2017-11-24T05:00:01.919Z,95.56
2017-11-24T05:01:01.906Z,95.84
2017-11-24T05:02:01.909Z,95.27
2017-11-24T05:03:01.903Z,95.27
2017-11-24T05:04:01.920Z,95.17
2017-11-24T05:05:01.892Z,95.17
2017-11-24T05:06:01.888Z,94.79
2017-11-24T05:07:01.876Z,94.60
2017-11-24T05:08:01.877Z,95.27
2017-11-24T05:09:01.871Z,94.60
2017-11-24T05:10:01.874Z,95.56
2017-11-24T05:11:01.861Z,95.65
2017-11-24T05:12:01.861Z,95.56
2017-11-24T05:13:01.852Z,95.75
2017-11-24T05:14:01.852Z,95.56
2017-11-24T05:15:01.840Z,95.75
2017-11-24T05:16:01.832Z,95.84
2017-11-24T05:17:01.828Z,95.27
2017-11-24T05:18:01.820Z,95.27
2017-11-24T05:19:01.815Z,94.79
2017-11-24T05:20:01.824Z,95.75
2017-11-24T05:21:01.810Z,95.84
2017-11-24T05:22:01.805Z,95.36
2017-11-24T05:23:01.798Z,94.98
2017-11-24T05:24:01.787Z,94.98
2017-11-24T05:25:01.793Z,95.17
2017-11-24T05:26:01.781Z,95.08
2017-11-24T05:27:01.775Z,94.79
2017-11-24T05:28:01.788Z,95.17
2017-11-24T05:29:01.768Z,93.93
2017-11-24T05:30:01.769Z,93.74
2017-11-24T05:31:01.754Z,94.03
2017-11-24T05:32:01.753Z,94.03
2017-11-24T05:33:01.740Z,93.84
2017-11-24T05:34:01.737Z,93.17
2017-11-24T05:35:01.723Z,93.26
2017-11-24T05:36:01.723Z,93.36
2017-11-24T05:37:01.721Z,93.17
2017-11-24T05:38:01.712Z,92.88
2017-11-24T05:39:01.709Z,92.97
2017-11-24T05:40:01.709Z,92.79
2017-11-24T05:41:01.701Z,92.69
2017-11-24T05:42:01.698Z,92.69
2017-11-24T05:43:01.699Z,92.79
2017-11-24T05:44:01.685Z,92.97
2017-11-24T05:45:01.689Z,92.60
2017-11-24T05:46:01.675Z,93.17
2017-11-24T05:47:01.669Z,92.88
2017-11-24T05:48:01.660Z,92.79
2017-11-24T05:49:01.650Z,92.79
2017-11-24T05:50:01.649Z,93.17
2017-11-24T05:51:01.665Z,92.97
2017-11-24T05:52:01.652Z,92.97
2017-11-24T05:53:01.655Z,92.97
2017-11-24T05:54:01.653Z,92.60
2017-11-24T05:55:01.630Z,92.97
2017-11-24T05:56:01.615Z,93.07
2017-11-24T05:57:01.615Z,92.60
2017-11-24T05:58:01.615Z,92.60
2017-11-24T05:59:01.628Z,92.64
2017-11-24T06:00:01.600Z,92.50
2017-11-24T06:01:01.594Z,92.69
2017-11-24T06:02:01.587Z,92.79
2017-11-24T06:03:01.589Z,92.74
2017-11-24T06:04:01.575Z,92.60
2017-11-24T06:05:01.570Z,92.79
2017-11-24T06:06:01.569Z,92.50
2017-11-24T06:07:01.563Z,92.93
2017-11-24T06:08:01.554Z,92.74
2017-11-24T06:09:01.550Z,92.88
2017-11-24T06:10:01.552Z,92.64
2017-11-24T06:11:01.539Z,92.74
2017-11-24T06:12:01.535Z,92.83
2017-11-24T06:13:01.530Z,92.45
2017-11-24T06:14:01.524Z,92.36
2017-11-24T06:15:01.517Z,92.07
2017-11-24T06:16:01.512Z,92.07
2017-11-24T06:17:01.507Z,92.64
2017-11-24T06:18:01.504Z,92.07
2017-11-24T06:19:01.493Z,91.69
2017-11-24T06:20:01.497Z,92.26
2017-11-24T06:21:01.488Z,91.88
2017-11-24T06:22:01.486Z,91.78
2017-11-24T06:23:01.480Z,92.07
2017-11-24T06:24:01.475Z,91.88
2017-11-24T06:25:01.466Z,92.07
2017-11-24T06:26:01.465Z,91.69
2017-11-24T06:27:01.457Z,91.69
2017-11-24T06:28:01.460Z,91.59
2017-11-24T06:29:01.444Z,91.88
2017-11-24T06:30:01.443Z,91.69
2017-11-24T06:31:01.437Z,91.97
2017-11-24T06:32:01.438Z,92.26
2017-11-24T06:33:01.420Z,92.26
2017-11-24T06:34:01.422Z,92.16
2017-11-24T06:35:01.413Z,92.26
2017-11-24T06:36:01.410Z,91.69
2017-11-24T06:37:01.404Z,91.69
2017-11-24T06:38:01.402Z,91.97
2017-11-24T06:39:01.399Z,91.97
2017-11-24T06:40:01.387Z,91.69
2017-11-24T06:41:01.384Z,91.11
2017-11-24T06:42:01.380Z,90.73
2017-11-24T06:43:01.377Z,90.83
2017-11-24T06:44:01.370Z,91.02
2017-11-24T06:45:01.362Z,91.02
2017-11-24T06:46:01.350Z,91.30
2017-11-24T06:47:01.355Z,90.73
2017-11-24T06:48:01.348Z,90.73
2017-11-24T06:49:01.335Z,90.64
2017-11-24T06:50:01.390Z,90.73
2017-11-24T06:51:01.331Z,91.21
2017-11-24T06:52:01.323Z,90.35
2017-11-24T06:53:01.325Z,90.35
2017-11-24T06:54:01.328Z,91.02
2017-11-24T06:55:01.316Z,92.64
2017-11-24T06:56:01.309Z,92.74
2017-11-24T06:57:01.305Z,94.27
2017-11-24T06:58:01.300Z,94.07
2017-11-24T06:59:01.303Z,94.46
2017-11-24T07:00:01.295Z,94.70
2017-11-24T07:01:01.281Z,94.79
2017-11-24T07:02:01.278Z,95.75
2017-11-24T07:03:01.269Z,96.13
2017-11-24T07:04:01.261Z,95.65
2017-11-24T07:05:01.261Z,95.65
2017-11-24T07:06:01.259Z,94.70
2017-11-24T07:07:01.255Z,95.08
2017-11-24T07:08:01.242Z,95.65
2017-11-24T07:09:01.241Z,95.61
2017-11-24T07:10:01.235Z,95.70
2017-11-24T07:11:01.230Z,96.46
2017-11-24T07:12:01.230Z,95.79
2017-11-24T07:13:01.222Z,95.12
2017-11-24T07:14:01.210Z,94.84
2017-11-24T07:15:01.205Z,95.22
2017-11-24T07:16:01.215Z,95.41
2017-11-24T07:17:01.202Z,95.89
2017-11-24T07:18:01.202Z,95.79
2017-11-24T07:19:01.187Z,95.61
2017-11-24T07:20:01.184Z,95.12
2017-11-24T07:21:01.177Z,95.22
2017-11-24T07:22:01.172Z,94.46
2017-11-24T07:23:01.167Z,93.88
2017-11-24T07:24:01.159Z,93.88
2017-11-24T07:25:01.154Z,94.27
2017-11-24T07:26:01.152Z,94.93
2017-11-24T07:27:01.142Z,94.65
2017-11-24T07:28:01.141Z,94.56
2017-11-24T07:29:01.131Z,94.56
2017-11-24T07:30:01.123Z,94.56
2017-11-24T07:31:01.121Z,94.60
2017-11-24T07:32:01.108Z,94.89
2017-11-24T07:32:13.115Z,95.08
2017-11-24T07:34:01.106Z,95.12
2017-11-24T07:35:01.101Z,95.12
2017-11-24T07:36:01.095Z,95.22
2017-11-24T07:37:01.087Z,94.70
2017-11-24T07:38:01.087Z,95.08
2017-11-24T07:39:01.077Z,95.17
2017-11-24T07:40:01.079Z,94.93
2017-11-24T07:41:01.074Z,95.03
2017-11-24T07:42:01.062Z,95.27
2017-11-24T07:43:01.052Z,94.98
2017-11-24T07:44:01.045Z,94.03
2017-11-24T07:45:01.040Z,93.17
2017-11-24T07:46:01.035Z,93.74
2017-11-24T07:47:01.025Z,94.22
2017-11-24T07:48:01.027Z,94.22
2017-11-24T07:49:01.019Z,94.41
2017-11-24T07:50:01.016Z,94.41
2017-11-24T07:51:01.009Z,94.60
2017-11-24T07:52:01.009Z,94.51
2017-11-24T07:53:00.998Z,94.70
2017-11-24T07:54:00.994Z,94.89
2017-11-24T07:55:00.986Z,94.70
2017-11-24T07:56:00.979Z,94.60
2017-11-24T07:57:00.969Z,94.98
2017-11-24T07:58:00.961Z,94.60
2017-11-24T07:58:12.978Z,94.41
2017-11-24T08:00:00.953Z,95.08
2017-11-24T08:01:00.950Z,94.41
2017-11-24T08:02:00.947Z,94.32
2017-11-24T08:03:00.938Z,94.32
2017-11-24T08:04:00.936Z,95.27
2017-11-24T08:05:00.923Z,94.32
2017-11-24T08:06:00.930Z,94.22
2017-11-24T08:07:00.917Z,95.08
2017-11-24T08:08:00.907Z,94.32
2017-11-24T08:09:00.903Z,94.70
2017-11-24T08:10:00.895Z,94.98
2017-11-24T08:11:00.894Z,94.98
2017-11-24T08:12:00.886Z,94.79
2017-11-24T08:13:00.883Z,94.70
2017-11-24T08:14:00.884Z,94.41
2017-11-24T08:15:00.872Z,94.89
2017-11-24T08:16:00.869Z,94.41
2017-11-24T08:17:00.860Z,94.37
2017-11-24T08:18:00.852Z,94.84
2017-11-24T08:19:00.850Z,94.93
2017-11-24T08:20:00.839Z,95.22
2017-11-24T08:21:00.831Z,95.03
2017-11-24T08:22:00.826Z,94.65
2017-11-24T08:23:00.819Z,94.84
2017-11-24T08:24:00.815Z,95.51
2017-11-24T08:25:00.807Z,94.93
2017-11-24T08:26:00.806Z,94.84
2017-11-24T08:27:00.793Z,94.74
2017-11-24T08:28:00.791Z,94.93
2017-11-24T08:29:00.788Z,95.32
2017-11-24T08:30:00.783Z,95.41
2017-11-24T08:31:00.776Z,95.61
2017-11-24T08:32:00.768Z,96.08
2017-11-24T08:33:00.761Z,95.70
2017-11-24T08:34:00.768Z,95.98
2017-11-24T08:35:00.750Z,96.56
2017-11-24T08:36:00.747Z,95.70
2017-11-24T08:37:00.739Z,95.41
2017-11-24T08:38:00.725Z,94.65
2017-11-24T08:39:00.739Z,94.65
2017-11-24T08:40:00.719Z,94.84
2017-11-24T08:41:00.711Z,94.93
2017-11-24T08:42:00.703Z,94.65
2017-11-24T08:43:00.699Z,95.12
2017-11-24T08:44:00.692Z,95.12
2017-11-24T08:45:00.694Z,94.93
2017-11-24T08:46:00.683Z,95.03
2017-11-24T08:47:00.682Z,94.84
2017-11-24T08:48:00.667Z,94.93
2017-11-24T08:49:00.665Z,94.93
2017-11-24T08:50:00.660Z,95.70
2017-11-24T08:51:00.653Z,95.70
2017-11-24T08:52:00.656Z,95.70
2017-11-24T08:53:00.636Z,95.61
2017-11-24T08:54:00.632Z,95.41
2017-11-24T08:55:00.625Z,95.79
2017-11-24T08:56:00.616Z,95.41
2017-11-24T08:57:00.611Z,95.32
2017-11-24T08:58:00.609Z,94.74
2017-11-24T08:59:00.603Z,95.32
2017-11-24T09:00:00.591Z,95.41
2017-11-24T09:01:00.589Z,96.08
2017-11-24T09:02:00.585Z,96.08
2017-11-24T09:03:00.593Z,96.17
2017-11-24T09:04:00.573Z,95.41
2017-11-24T09:05:00.564Z,95.61
2017-11-24T09:06:00.560Z,95.61
2017-11-24T09:07:00.554Z,95.61
2017-11-24T09:08:03.453Z,95.61
2017-11-24T09:09:00.535Z,95.79
2017-11-24T09:10:00.530Z,95.79
2017-11-24T09:11:00.526Z,95.98
2017-11-24T09:12:00.525Z,95.98
2017-11-24T09:13:00.519Z,95.89
2017-11-24T09:14:00.508Z,95.70
2017-11-24T09:15:03.457Z,95.51
2017-11-24T09:16:00.513Z,95.51
2017-11-24T09:17:00.489Z,95.61
2017-11-24T09:18:00.481Z,95.61
2017-11-24T09:19:00.473Z,95.41
2017-11-24T09:20:00.477Z,95.98
2017-11-24T09:21:00.463Z,95.89
2017-11-24T09:22:00.459Z,95.70
2017-11-24T09:23:00.458Z,95.79
2017-11-24T09:24:00.445Z,95.70
2017-11-24T09:25:00.444Z,96.08
2017-11-24T09:26:00.438Z,96.36
2017-11-24T09:27:00.428Z,96.17
2017-11-24T09:28:00.423Z,96.17
2017-11-24T09:29:00.412Z,95.70
2017-11-24T09:30:00.417Z,95.89
2017-11-24T09:31:00.404Z,95.98
2017-11-24T09:32:00.406Z,96.08
2017-11-24T09:33:00.390Z,96.17
2017-11-24T09:34:00.384Z,95.79
2017-11-24T09:35:00.378Z,95.79
2017-11-24T09:36:00.368Z,95.89
2017-11-24T09:37:00.362Z,95.98
2017-11-24T09:38:00.359Z,96.08
2017-11-24T09:39:00.353Z,95.79
2017-11-24T09:40:00.345Z,96.17
2017-11-24T09:41:00.343Z,95.79
2017-11-24T09:42:00.338Z,95.79
2017-11-24T09:43:00.345Z,96.08
2017-11-24T09:44:00.322Z,95.70
2017-11-24T09:45:00.316Z,96.17
2017-11-24T09:46:00.312Z,95.79
2017-11-24T09:47:00.967Z,96.17
2017-11-24T09:48:00.297Z,95.98
2017-11-24T09:49:00.292Z,95.79
2017-11-24T09:50:00.973Z,96.08
2017-11-24T09:51:00.276Z,95.98
2017-11-24T09:52:00.274Z,96.27
2017-11-24T09:53:00.272Z,95.51
2017-11-24T09:54:00.261Z,95.61
2017-11-24T09:55:00.975Z,95.41
2017-11-24T09:56:00.250Z,96.08
2017-11-24T09:57:00.246Z,95.98
2017-11-24T09:58:00.237Z,96.08
2017-11-24T09:59:00.233Z,95.98
2017-11-24T10:00:00.224Z,95.79
2017-11-24T10:01:00.218Z,95.61
2017-11-24T10:02:00.214Z,95.70
2017-11-24T10:03:00.215Z,95.61
2017-11-24T10:04:00.201Z,95.41
2017-11-24T10:05:00.203Z,95.70
2017-11-24T10:06:00.972Z,96.08
2017-11-24T10:07:00.180Z,95.61
2017-11-24T10:08:00.186Z,95.51
2017-11-24T10:09:00.173Z,95.61
2017-11-24T10:10:00.168Z,96.17
2017-11-24T10:11:00.155Z,96.27
2017-11-24T10:12:00.149Z,95.61
2017-11-24T10:13:00.148Z,95.61
2017-11-24T10:14:00.142Z,95.41
2017-11-24T10:15:00.137Z,95.51
2017-11-24T10:16:00.147Z,95.61
2017-11-24T10:17:00.124Z,95.51
2017-11-24T10:18:00.109Z,95.61
2017-11-24T10:19:00.097Z,95.41
2017-11-24T10:20:00.096Z,95.79
2017-11-24T10:21:00.098Z,95.79
2017-11-24T10:22:00.096Z,95.70
2017-11-24T10:23:00.087Z,95.51
2017-11-24T10:24:00.078Z,94.65
2017-11-24T10:25:00.073Z,95.03
2017-11-24T10:26:00.069Z,94.93
2017-11-24T10:27:00.067Z,95.03
2017-11-24T10:28:00.051Z,95.32
2017-11-24T10:29:00.046Z,95.32
2017-11-24T10:30:00.039Z,95.41
2017-11-24T10:31:00.039Z,95.79
2017-11-24T10:32:00.026Z,95.98
2017-11-24T10:33:00.036Z,95.79
2017-11-24T10:34:00.014Z,95.98
2017-11-24T10:35:00.006Z,95.70
2017-11-24T10:36:00.004Z,95.79
2017-11-24T10:36:59.994Z,95.89
2017-11-24T10:37:59.985Z,96.17
2017-11-24T10:38:59.978Z,96.17
2017-11-24T10:39:59.977Z,95.79
2017-11-24T10:40:59.967Z,95.70
2017-11-24T10:41:59.967Z,95.51
2017-11-24T10:42:59.955Z,95.98
2017-11-24T10:43:59.948Z,95.70
2017-11-24T10:44:59.944Z,96.17
2017-11-24T10:45:59.939Z,95.89
2017-11-24T10:46:59.934Z,95.89
2017-11-24T10:47:59.925Z,95.70
2017-11-24T10:48:59.931Z,96.08
2017-11-24T10:49:59.914Z,95.79
2017-11-24T10:50:59.908Z,95.70
2017-11-24T10:51:59.904Z,96.46
2017-11-24T10:52:59.891Z,95.89
2017-11-24T10:53:59.890Z,95.79
2017-11-24T10:54:59.887Z,95.89
2017-11-24T10:55:59.874Z,95.98
2017-11-24T10:56:59.875Z,95.79
2017-11-24T10:57:59.880Z,95.41
2017-11-24T10:58:59.862Z,95.32
2017-11-24T10:59:59.854Z,95.51
2017-11-24T11:00:59.844Z,96.17
2017-11-24T11:01:59.843Z,96.08
2017-11-24T11:02:59.830Z,95.51
2017-11-24T11:03:59.828Z,95.51
2017-11-24T11:04:59.824Z,95.79
2017-11-24T11:05:59.813Z,95.79
2017-11-24T11:06:59.804Z,95.98
2017-11-24T11:07:59.794Z,95.70
2017-11-24T11:08:59.795Z,95.61
2017-11-24T11:09:59.789Z,95.79
2017-11-24T11:10:59.774Z,95.61
2017-11-24T11:11:59.780Z,95.12
2017-11-24T11:12:59.764Z,95.41
2017-11-24T11:13:59.766Z,95.51
2017-11-24T11:14:59.757Z,95.70
2017-11-24T11:15:59.748Z,94.84
2017-11-24T11:16:59.745Z,95.22
2017-11-24T11:17:59.740Z,95.12
2017-11-24T11:18:59.730Z,94.27
2017-11-24T11:19:59.732Z,93.98
2017-11-24T11:20:59.711Z,93.70
2017-11-24T11:21:11.719Z,94.08
2017-11-24T11:22:59.707Z,93.88
2017-11-24T11:23:59.701Z,93.79
2017-11-24T11:24:59.691Z,93.60
2017-11-24T11:25:59.692Z,93.51
2017-11-24T11:26:59.687Z,93.98
2017-11-24T11:27:59.676Z,93.03
2017-11-24T11:28:59.675Z,93.88
2017-11-24T11:29:59.669Z,93.88
2017-11-24T11:31:00.500Z,94.08
2017-11-24T11:31:59.653Z,93.98
2017-11-24T11:32:59.654Z,93.70
2017-11-24T11:33:59.644Z,94.08
2017-11-24T11:34:59.634Z,93.88
2017-11-24T11:35:59.620Z,94.08
2017-11-24T11:36:59.624Z,94.12
2017-11-24T11:37:59.619Z,93.51
2017-11-24T11:38:59.609Z,93.70
2017-11-24T11:39:59.601Z,93.60
2017-11-24T11:40:59.598Z,92.41
2017-11-24T11:41:59.597Z,92.74
2017-11-24T11:42:59.589Z,92.32
2017-11-24T11:43:59.580Z,91.93
2017-11-24T11:44:59.579Z,92.32
2017-11-24T11:45:59.560Z,92.32
2017-11-24T11:46:59.564Z,92.36
2017-11-24T11:47:59.557Z,92.41
2017-11-24T11:48:59.550Z,91.93
2017-11-24T11:49:59.544Z,91.74
2017-11-24T11:50:59.543Z,91.55
2017-11-24T11:51:59.539Z,92.22
2017-11-24T11:52:59.528Z,92.12
2017-11-24T11:53:59.529Z,91.46
2017-11-24T11:54:59.520Z,90.59
2017-11-24T11:55:59.515Z,91.31
2017-11-24T11:56:59.507Z,91.93
2017-11-24T11:58:00.025Z,90.69
2017-11-24T11:58:59.492Z,90.79
2017-11-24T11:59:59.491Z,91.41
2017-11-24T12:00:59.479Z,91.46
2017-11-24T12:01:59.479Z,91.46
2017-11-24T12:02:59.467Z,90.88
2017-11-24T12:03:59.467Z,90.55
2017-11-24T12:05:00.017Z,90.41
2017-11-24T12:05:59.451Z,91.46
2017-11-24T12:06:59.449Z,91.17
2017-11-24T12:07:59.449Z,91.55
2017-11-24T12:08:59.429Z,91.46
2017-11-24T12:09:59.431Z,91.55
2017-11-24T12:10:11.423Z,91.17
2017-11-24T12:11:59.418Z,90.88
2017-11-24T12:13:00.018Z,90.31
2017-11-24T12:13:59.409Z,90.22
2017-11-24T12:14:59.403Z,90.50
2017-11-24T12:15:59.392Z,90.50
2017-11-24T12:16:59.391Z,90.03
2017-11-24T12:17:59.385Z,90.22
2017-11-24T12:18:59.376Z,90.12
2017-11-24T12:19:59.372Z,90.12
2017-11-24T12:20:59.368Z,90.12
2017-11-24T12:21:59.358Z,90.03
2017-11-24T12:22:59.361Z,90.22
2017-11-24T12:23:59.343Z,90.22
2017-11-24T12:24:59.347Z,90.22
2017-11-24T12:25:59.336Z,90.08
2017-11-24T12:26:59.329Z,90.12
2017-11-24T12:27:59.329Z,90.55
2017-11-24T12:28:59.321Z,90.17
2017-11-24T12:29:59.317Z,90.22
2017-11-24T12:30:59.302Z,89.89
2017-11-24T12:31:59.294Z,90.12
2017-11-24T12:32:59.301Z,90.50
2017-11-24T12:33:59.296Z,90.93
2017-11-24T12:34:59.287Z,90.64
2017-11-24T12:36:00.853Z,90.88
2017-11-24T12:36:59.271Z,90.74
2017-11-24T12:37:59.326Z,90.08
2017-11-24T12:38:59.262Z,89.98
2017-11-24T12:39:59.258Z,89.60
2017-11-24T12:40:59.258Z,90.36
2017-11-24T12:41:59.252Z,90.26
2017-11-24T12:42:59.243Z,89.98
2017-11-24T12:43:59.236Z,90.26
2017-11-24T12:44:59.230Z,90.17
2017-11-24T12:45:59.220Z,90.26
2017-11-24T12:46:59.225Z,90.55
2017-11-24T12:47:59.209Z,90.17
2017-11-24T12:48:59.222Z,90.26
2017-11-24T12:49:59.199Z,90.17
2017-11-24T12:50:59.199Z,89.98
2017-11-24T12:51:59.189Z,90.36